createdAt,value
2023-03-22T00:00:45.998Z,19.50
2023-03-22T00:03:32.141Z,18.60
2023-03-22T00:06:18.990Z,18.30
2023-03-22T00:09:05.400Z,19.50
2023-03-22T00:11:52.005Z,17.50
2023-03-22T00:14:38.759Z,16.80
2023-03-22T00:17:26.914Z,20.50
2023-03-22T00:20:13.736Z,17.50
2023-03-22T00:23:00.807Z,19.00
2023-03-22T00:25:48.178Z,19.40
2023-03-22T00:28:35.715Z,20.60
2023-03-22T00:31:22.332Z,19.70
2023-03-22T00:34:09.227Z,19.00
2023-03-22T00:36:55.684Z,17.40
2023-03-22T00:39:42.504Z,19.70
2023-03-22T00:42:28.930Z,20.00
2023-03-22T00:45:15.596Z,22.80
2023-03-22T00:48:02.074Z,21.30
2023-03-22T00:50:48.813Z,21.90
2023-03-22T00:53:41.102Z,22.20
2023-03-22T00:56:29.250Z,18.60
2023-03-22T00:59:23.766Z,22.70
2023-03-22T01:02:14.084Z,23.10
2023-03-22T01:05:00.280Z,22.70
2023-03-22T01:07:50.034Z,24.70
2023-03-22T01:10:38.618Z,24.30
2023-03-22T01:13:25.243Z,22.10
2023-03-22T01:16:11.570Z,23.40
2023-03-22T01:18:58.571Z,21.00
2023-03-22T01:21:45.408Z,24.60
2023-03-22T01:24:32.428Z,26.80
2023-03-22T01:27:18.699Z,22.90
2023-03-22T01:30:06.636Z,26.80
2023-03-22T01:32:53.291Z,25.70
2023-03-22T01:35:39.748Z,25.00
2023-03-22T01:38:27.061Z,25.70
2023-03-22T01:41:17.148Z,24.90
2023-03-22T01:44:12.093Z,23.80
2023-03-22T01:46:58.662Z,19.40
2023-03-22T01:49:45.529Z,25.60
2023-03-22T01:52:31.767Z,23.20
2023-03-22T01:55:25.452Z,22.20
2023-03-22T01:58:37.459Z,24.80
2023-03-22T02:01:25.251Z,22.20
2023-03-22T02:04:22.862Z,23.60
2023-03-22T02:07:15.306Z,24.60
2023-03-22T02:10:03.525Z,25.60
2023-03-22T02:13:50.179Z,24.00
2023-03-22T02:17:59.157Z,20.60
2023-03-22T02:21:26.708Z,22.30
2023-03-22T02:25:05.837Z,22.70
2023-03-22T02:28:28.957Z,19.80
2023-03-22T02:31:49.162Z,24.10
2023-03-22T02:35:16.143Z,23.00
2023-03-22T02:38:26.578Z,21.00
2023-03-22T02:42:06.990Z,23.80
2023-03-22T02:45:04.726Z,28.30
2023-03-22T02:48:28.008Z,22.80
2023-03-22T02:51:23.927Z,23.10
2023-03-22T02:54:23.485Z,23.80
2023-03-22T02:57:20.193Z,22.30
2023-03-22T03:00:10.818Z,20.20
2023-03-22T03:03:10.539Z,24.20
2023-03-22T03:06:05.420Z,25.50
2023-03-22T03:08:57.363Z,25.20
2023-03-22T03:11:53.397Z,28.10
2023-03-22T03:14:40.330Z,28.40
2023-03-22T03:18:08.119Z,26.90
2023-03-22T03:21:50.568Z,29.10
2023-03-22T03:24:47.863Z,27.10
2023-03-22T03:27:49.192Z,23.00
2023-03-22T03:30:51.341Z,30.00
2023-03-22T03:33:47.767Z,29.10
2023-03-22T03:36:40.307Z,30.30
2023-03-22T03:39:32.716Z,28.00
2023-03-22T03:42:22.089Z,28.10
2023-03-22T03:45:09.744Z,35.40
2023-03-22T03:48:03.384Z,29.10
2023-03-22T03:50:53.493Z,33.20
2023-03-22T03:53:40.117Z,32.20
2023-03-22T03:56:26.818Z,32.50
2023-03-22T03:59:18.509Z,34.10
2023-03-22T04:02:06.207Z,34.30
2023-03-22T04:04:52.692Z,27.90
2023-03-22T04:07:39.718Z,35.90
2023-03-22T04:10:26.406Z,34.90
2023-03-22T04:13:12.785Z,36.00
2023-03-22T04:16:01.466Z,30.60
2023-03-22T04:18:50.803Z,30.70
2023-03-22T04:21:37.386Z,32.20
2023-03-22T04:24:23.948Z,31.40
2023-03-22T04:27:10.808Z,33.00
2023-03-22T04:30:19.715Z,35.20
2023-03-22T04:33:31.921Z,32.30
2023-03-22T04:36:38.814Z,37.70
2023-03-22T04:39:40.954Z,29.90
2023-03-22T04:42:50.745Z,31.90
2023-03-22T04:45:46.247Z,34.30
2023-03-22T04:48:40.817Z,31.20
2023-03-22T04:51:29.935Z,36.60
2023-03-22T04:54:42.348Z,36.40
2023-03-22T04:57:29.002Z,35.10
2023-03-22T05:00:17.995Z,31.60
2023-03-22T05:03:05.175Z,34.40
2023-03-22T05:06:07.522Z,31.50
2023-03-22T05:09:08.160Z,31.00
2023-03-22T05:11:55.217Z,32.10
2023-03-22T05:15:00.405Z,33.50
2023-03-22T05:17:50.349Z,32.20
2023-03-22T05:20:37.132Z,28.00
2023-03-22T05:23:36.534Z,25.80
2023-03-22T05:26:27.254Z,24.60
2023-03-22T05:29:14.084Z,32.00
2023-03-22T05:32:24.990Z,27.00
2023-03-22T05:35:13.503Z,28.20
2023-03-22T05:38:05.664Z,29.90
2023-03-22T05:40:54.106Z,29.60
2023-03-22T05:43:41.626Z,30.50
2023-03-22T05:46:29.907Z,28.20
2023-03-22T05:49:46.388Z,28.20
2023-03-22T05:52:32.738Z,30.70
2023-03-22T05:55:42.386Z,26.40
2023-03-22T05:58:31.096Z,26.80
2023-03-22T06:01:19.755Z,26.60
2023-03-22T06:04:06.258Z,25.00
2023-03-22T06:07:18.824Z,29.60
2023-03-22T06:10:13.968Z,27.30
2023-03-22T06:13:00.889Z,25.40
2023-03-22T06:15:49.414Z,28.60
2023-03-22T06:18:42.450Z,26.90
2023-03-22T06:21:30.933Z,27.60
2023-03-22T06:24:17.496Z,28.90
2023-03-22T06:27:05.979Z,27.30
2023-03-22T06:29:54.216Z,27.10
2023-03-22T06:32:42.996Z,27.30
2023-03-22T06:35:29.811Z,29.60
2023-03-22T06:38:16.838Z,29.90
2023-03-22T06:41:04.249Z,27.30
2023-03-22T06:43:50.751Z,30.20
2023-03-22T06:46:55.981Z,32.00
2023-03-22T06:50:01.273Z,29.10
2023-03-22T06:53:01.178Z,32.50
2023-03-22T06:55:47.962Z,31.40
2023-03-22T06:58:40.455Z,33.70
2023-03-22T07:01:27.192Z,26.90
2023-03-22T07:04:14.883Z,29.30
2023-03-22T07:07:02.787Z,31.50
2023-03-22T07:09:49.440Z,32.20
2023-03-22T07:12:36.191Z,30.20
2023-03-22T07:15:27.255Z,30.40
2023-03-22T07:18:28.285Z,31.10
2023-03-22T07:21:15.102Z,31.50
2023-03-22T07:24:02.805Z,30.60
2023-03-22T07:26:50.987Z,29.50
2023-03-22T07:29:39.662Z,30.30
2023-03-22T07:32:26.626Z,27.30
2023-03-22T07:35:39.111Z,31.90
2023-03-22T07:38:28.444Z,30.60
2023-03-22T07:41:14.873Z,29.30
2023-03-22T07:44:18.001Z,25.60
2023-03-22T07:47:39.481Z,25.60
2023-03-22T07:50:39.435Z,27.30
2023-03-22T07:53:26.438Z,26.80
2023-03-22T07:56:13.105Z,26.40
2023-03-22T07:58:59.976Z,25.00
2023-03-22T08:01:46.755Z,24.90
2023-03-22T08:04:46.438Z,27.70
2023-03-22T08:07:41.924Z,27.60
2023-03-22T08:10:31.119Z,26.30
2023-03-22T08:13:17.748Z,25.50
2023-03-22T08:16:05.740Z,27.00
2023-03-22T08:18:52.332Z,23.80
2023-03-22T08:21:39.800Z,22.60
2023-03-22T08:24:29.206Z,25.10
2023-03-22T08:27:24.928Z,25.60
2023-03-22T08:30:12.557Z,23.10
2023-03-22T08:32:59.224Z,25.10
2023-03-22T08:35:46.521Z,25.30
2023-03-22T08:38:33.400Z,23.20
2023-03-22T08:41:19.848Z,25.60
2023-03-22T08:44:06.645Z,24.80
2023-03-22T08:46:54.638Z,22.70
2023-03-22T08:49:41.502Z,25.10
2023-03-22T08:52:33.827Z,21.90
2023-03-22T08:55:24.263Z,20.60
2023-03-22T08:58:28.710Z,19.90
2023-03-22T09:01:38.504Z,18.90
2023-03-22T09:04:27.219Z,18.00
2023-03-22T09:07:14.129Z,15.70
2023-03-22T09:10:01.014Z,16.60
2023-03-22T09:12:48.398Z,16.50
2023-03-22T09:15:35.278Z,17.90
2023-03-22T09:18:28.493Z,14.40
2023-03-22T09:21:17.483Z,14.20
2023-03-22T09:24:17.718Z,13.60
2023-03-22T09:27:07.857Z,14.20
2023-03-22T09:29:54.949Z,13.30
2023-03-22T09:32:41.720Z,12.00
2023-03-22T09:35:30.426Z,11.80
2023-03-22T09:38:21.361Z,15.10
2023-03-22T09:41:20.637Z,13.60
2023-03-22T09:44:21.823Z,14.90
2023-03-22T09:47:17.277Z,14.80
2023-03-22T09:50:15.616Z,17.90
2023-03-22T09:53:02.244Z,14.40
2023-03-22T09:55:57.161Z,14.80
2023-03-22T09:59:04.184Z,15.10
2023-03-22T10:02:01.269Z,14.90
2023-03-22T10:05:31.274Z,14.20
2023-03-22T10:08:22.767Z,14.00
2023-03-22T10:11:34.237Z,14.00
2023-03-22T10:14:44.386Z,14.00
2023-03-22T10:17:31.371Z,13.80
2023-03-22T10:21:08.795Z,15.80
2023-03-22T10:24:16.645Z,14.00
2023-03-22T10:27:12.862Z,15.80
2023-03-22T10:30:23.913Z,14.10
2023-03-22T10:33:24.604Z,14.20
2023-03-22T10:36:14.397Z,14.10
2023-03-22T10:39:38.508Z,14.20
2023-03-22T10:42:29.890Z,14.80
2023-03-22T10:45:16.503Z,15.40
2023-03-22T10:48:19.130Z,13.90
2023-03-22T10:51:07.114Z,14.10
2023-03-22T10:53:57.536Z,12.60
2023-03-22T10:56:45.106Z,13.60
2023-03-22T10:59:51.614Z,13.40
2023-03-22T11:02:52.841Z,13.80
2023-03-22T11:05:39.534Z,12.90
2023-03-22T11:08:25.953Z,12.20
2023-03-22T11:11:29.469Z,13.60
2023-03-22T11:14:43.246Z,13.10
2023-03-22T11:17:30.532Z,12.10
2023-03-22T11:20:19.249Z,13.10
2023-03-22T11:23:06.427Z,12.70
2023-03-22T11:25:58.744Z,11.40
2023-03-22T11:28:50.583Z,13.90
2023-03-22T11:31:57.994Z,13.10
2023-03-22T11:34:45.432Z,11.40
2023-03-22T11:37:31.696Z,14.00
2023-03-22T11:40:34.979Z,17.20
2023-03-22T11:43:27.250Z,13.10
2023-03-22T11:46:18.721Z,12.80
2023-03-22T11:49:13.962Z,13.30
2023-03-22T11:52:10.560Z,11.60
2023-03-22T11:55:00.376Z,11.90
2023-03-22T11:57:48.597Z,12.40
2023-03-22T12:00:39.389Z,13.00
2023-03-22T12:03:35.529Z,12.40
2023-03-22T12:06:28.955Z,13.00
2023-03-22T12:09:48.432Z,14.70
2023-03-22T12:12:42.194Z,13.30
2023-03-22T12:15:36.934Z,16.10
2023-03-22T12:18:48.265Z,12.50
2023-03-22T12:21:34.890Z,13.10
2023-03-22T12:24:31.824Z,12.90
2023-03-22T12:27:33.644Z,13.90
2023-03-22T12:30:27.879Z,14.40
2023-03-22T12:33:50.975Z,13.60
2023-03-22T12:36:46.539Z,14.30
2023-03-22T12:40:01.416Z,14.80
2023-03-22T12:43:11.037Z,14.90
2023-03-22T12:46:01.432Z,16.20
2023-03-22T12:49:10.539Z,15.10
2023-03-22T12:52:13.475Z,15.80
2023-03-22T12:55:02.287Z,16.70
2023-03-22T12:57:51.830Z,15.80
2023-03-22T13:01:00.615Z,15.10
2023-03-22T13:03:54.177Z,15.40
2023-03-22T13:06:45.856Z,15.40
2023-03-22T13:09:41.894Z,16.60
2023-03-22T13:12:32.483Z,15.90
2023-03-22T13:15:41.746Z,15.30
2023-03-22T13:18:35.817Z,15.80
2023-03-22T13:21:47.888Z,18.10
2023-03-22T13:24:34.384Z,18.50
2023-03-22T13:27:20.910Z,17.10
2023-03-22T13:30:32.404Z,16.60
2023-03-22T13:33:27.979Z,18.40
2023-03-22T13:36:25.440Z,18.40
2023-03-22T13:39:16.441Z,15.70
2023-03-22T13:42:18.201Z,18.80
2023-03-22T13:45:32.817Z,16.80
2023-03-22T13:48:43.647Z,17.70
2023-03-22T13:51:32.637Z,16.10
2023-03-22T13:54:30.311Z,19.70
2023-03-22T13:57:45.801Z,18.80
2023-03-22T14:00:38.227Z,18.70
2023-03-22T14:03:36.808Z,17.40
2023-03-22T14:06:33.186Z,14.80
2023-03-22T14:09:39.145Z,16.90
2023-03-22T14:13:13.288Z,16.80
2023-03-22T14:16:21.196Z,16.10
2023-03-22T14:19:20.509Z,15.20
